createdAt,value
2022-11-10T05:16:22.012Z,2.32
2022-11-10T05:19:08.141Z,2.29
2022-11-10T05:21:53.365Z,2.29
2022-11-10T05:24:38.404Z,2.32
2022-11-10T05:27:23.680Z,2.32
2022-11-10T05:30:09.139Z,2.40
2022-11-10T05:32:54.082Z,2.38
2022-11-10T05:35:40.126Z,2.44
2022-11-10T05:38:25.729Z,2.38
2022-11-10T05:41:11.615Z,2.32
2022-11-10T05:43:56.506Z,2.32
2022-11-10T05:46:41.396Z,2.23
2022-11-10T05:49:27.419Z,2.19
2022-11-10T05:52:13.322Z,2.18
2022-11-10T05:54:59.448Z,2.17
2022-11-10T05:57:49.757Z,2.06
2022-11-10T06:00:35.513Z,2.14
2022-11-10T06:03:21.900Z,2.14
2022-11-10T06:06:07.735Z,2.12
2022-11-10T06:08:52.833Z,2.11
2022-11-10T06:11:37.840Z,2.11
2022-11-10T06:14:23.174Z,2.07
2022-11-10T06:17:08.097Z,2.04
2022-11-10T06:19:53.078Z,1.95
2022-11-10T06:22:37.936Z,1.82
2022-11-10T06:25:22.886Z,1.83
2022-11-10T06:28:32.248Z,1.79
2022-11-10T06:31:18.326Z,1.81
2022-11-10T06:34:03.299Z,1.80
2022-11-10T06:36:48.439Z,1.76
2022-11-10T06:39:33.434Z,1.74
2022-11-10T06:42:18.682Z,1.80
2022-11-10T06:45:03.966Z,1.85
2022-11-10T06:47:48.955Z,1.87
2022-11-10T06:50:35.316Z,1.94
2022-11-10T06:53:25.781Z,2.01
2022-11-10T06:56:11.981Z,2.08
2022-11-10T06:58:56.970Z,2.06
2022-11-10T07:01:41.963Z,2.13
2022-11-10T07:04:26.889Z,2.12
2022-11-10T07:07:21.033Z,2.22
2022-11-10T07:10:07.409Z,2.24
2022-11-10T07:12:57.496Z,2.24
2022-11-10T07:15:43.009Z,2.16
2022-11-10T07:18:28.034Z,2.00
2022-11-10T07:21:12.977Z,2.01
2022-11-10T07:23:58.053Z,2.00
2022-11-10T07:26:44.236Z,1.95
2022-11-10T07:29:29.325Z,2.00
2022-11-10T07:32:14.868Z,2.06
2022-11-10T07:35:00.007Z,2.13
2022-11-10T07:37:47.166Z,2.25
2022-11-10T07:40:35.476Z,2.36
2022-11-10T07:43:22.001Z,2.46
2022-11-10T07:46:07.355Z,2.50
2022-11-10T07:48:53.026Z,2.49
2022-11-10T07:51:38.319Z,2.66
2022-11-10T07:54:23.428Z,2.64
2022-11-10T07:57:08.427Z,2.81
2022-11-10T07:59:57.814Z,2.77
2022-11-10T08:02:43.265Z,2.91
2022-11-10T08:05:28.354Z,2.90
2022-11-10T08:08:18.964Z,2.82
2022-11-10T08:11:04.481Z,2.82
2022-11-10T08:13:49.514Z,2.91
2022-11-10T08:16:34.736Z,2.97
2022-11-10T08:19:27.677Z,3.00
2022-11-10T08:22:12.786Z,3.16
2022-11-10T08:24:57.758Z,3.25
2022-11-10T08:27:42.829Z,3.43
2022-11-10T08:30:28.681Z,3.74
2022-11-10T08:33:16.661Z,3.92
2022-11-10T08:36:02.860Z,3.96
2022-11-10T08:38:48.170Z,4.07
2022-11-10T08:41:33.419Z,4.06
2022-11-10T08:44:21.066Z,4.18
2022-11-10T08:47:06.700Z,4.48
2022-11-10T08:49:51.788Z,4.60
2022-11-10T08:52:36.812Z,4.78
2022-11-10T08:55:24.314Z,4.82
2022-11-10T08:58:18.142Z,5.02
2022-11-10T09:01:08.180Z,5.07
2022-11-10T09:03:53.445Z,5.28
2022-11-10T09:06:51.132Z,5.25
2022-11-10T09:09:36.516Z,5.22
2022-11-10T09:12:21.639Z,5.26
2022-11-10T09:15:07.636Z,5.47
2022-11-10T09:17:52.433Z,5.41
2022-11-10T09:20:38.717Z,5.49
2022-11-10T09:23:28.120Z,5.53
2022-11-10T09:26:13.240Z,5.42
2022-11-10T09:28:58.377Z,5.64
2022-11-10T09:31:44.757Z,5.66
2022-11-10T09:34:34.166Z,5.72
2022-11-10T09:37:19.141Z,5.78
2022-11-10T09:40:04.362Z,5.86
2022-11-10T09:42:54.965Z,5.83
2022-11-10T09:45:45.310Z,5.83
2022-11-10T09:48:34.197Z,6.15
2022-11-10T09:51:24.809Z,6.00
2022-11-10T09:54:30.773Z,6.25
2022-11-10T09:57:20.456Z,6.24
2022-11-10T10:00:06.304Z,6.54
2022-11-10T10:02:59.027Z,6.59
2022-11-10T10:06:06.240Z,6.40
2022-11-10T10:09:32.885Z,6.36
2022-11-10T10:12:42.231Z,6.47
2022-11-10T10:15:36.758Z,6.55
2022-11-10T10:18:22.179Z,6.44
2022-11-10T10:21:42.794Z,6.72
2022-11-10T10:24:30.312Z,7.20
2022-11-10T10:27:22.823Z,7.38
2022-11-10T10:30:19.992Z,7.48
2022-11-10T10:33:20.710Z,7.42
2022-11-10T10:36:14.375Z,7.36
2022-11-10T10:39:04.703Z,7.44
2022-11-10T10:41:53.769Z,7.48
2022-11-10T10:44:39.312Z,7.62
2022-11-10T10:47:36.912Z,7.53
2022-11-10T10:50:34.371Z,7.57
2022-11-10T10:53:23.042Z,7.23
2022-11-10T10:56:22.339Z,7.15
2022-11-10T10:59:20.806Z,7.31
2022-11-10T11:02:25.509Z,7.51
2022-11-10T11:05:12.706Z,7.53
2022-11-10T11:08:02.709Z,7.53
2022-11-10T11:10:47.743Z,7.78
2022-11-10T11:13:32.743Z,7.66
2022-11-10T11:16:17.562Z,8.15
2022-11-10T11:19:03.752Z,7.89
2022-11-10T11:22:16.672Z,7.76
2022-11-10T11:25:17.301Z,7.65
2022-11-10T11:28:21.577Z,7.57
2022-11-10T11:31:28.041Z,7.88
2022-11-10T11:34:40.948Z,7.69
2022-11-10T11:37:37.893Z,7.93
2022-11-10T11:40:37.860Z,8.02
2022-11-10T11:44:13.550Z,8.31
2022-11-10T11:47:17.227Z,8.46
2022-11-10T11:50:15.305Z,8.28
2022-11-10T11:53:28.123Z,8.48
2022-11-10T11:56:13.109Z,8.37
2022-11-10T11:59:08.406Z,8.31
2022-11-10T12:02:25.741Z,8.34
2022-11-10T12:05:36.938Z,8.20
2022-11-10T12:08:51.502Z,8.19
2022-11-10T12:12:13.415Z,8.67
2022-11-10T12:15:09.204Z,9.40
2022-11-10T12:18:12.559Z,10.04
2022-11-10T12:21:06.639Z,10.65
2022-11-10T12:24:15.203Z,9.89
2022-11-10T12:27:10.165Z,9.13
2022-11-10T12:29:57.936Z,9.91
2022-11-10T12:32:52.976Z,12.23
2022-11-10T12:35:42.102Z,15.60
2022-11-10T12:38:44.143Z,14.76
2022-11-10T12:41:38.965Z,15.28
2022-11-10T12:44:45.613Z,14.90
2022-11-10T12:47:45.554Z,13.31
2022-11-10T12:50:30.443Z,12.18
2022-11-10T12:53:23.580Z,13.28
2022-11-10T12:56:17.546Z,15.52
2022-11-10T12:59:20.794Z,15.18
2022-11-10T13:02:24.542Z,15.57
2022-11-10T13:05:15.469Z,15.66
2022-11-10T13:08:14.924Z,15.43
2022-11-10T13:11:07.722Z,16.90
2022-11-10T13:14:01.481Z,16.22
2022-11-10T13:16:53.845Z,16.26
2022-11-10T13:19:39.253Z,15.29
2022-11-10T13:22:37.121Z,15.37
2022-11-10T13:25:41.651Z,16.94
2022-11-10T13:28:48.661Z,16.13
2022-11-10T13:31:51.069Z,17.33
2022-11-10T13:34:38.237Z,16.00
2022-11-10T13:37:29.209Z,16.16
2022-11-10T13:40:28.030Z,18.12
2022-11-10T13:43:19.118Z,18.57
2022-11-10T13:46:05.395Z,17.34
2022-11-10T13:49:19.017Z,16.79
2022-11-10T13:52:15.992Z,16.36
2022-11-10T13:55:20.160Z,16.20
2022-11-10T13:58:09.986Z,15.44
2022-11-10T14:01:13.725Z,14.64
2022-11-10T14:04:01.889Z,15.22
2022-11-10T14:06:51.784Z,15.06
2022-11-10T14:09:42.057Z,14.62
2022-11-10T14:12:46.119Z,13.02
2022-11-10T14:15:41.875Z,12.03
2022-11-10T14:18:38.527Z,11.68
2022-11-10T14:21:30.938Z,11.31
2022-11-10T14:24:22.099Z,10.85
2022-11-10T14:28:02.054Z,10.69
2022-11-10T14:30:52.388Z,10.18
2022-11-10T14:33:37.494Z,9.88
2022-11-10T14:36:23.198Z,9.84
2022-11-10T14:39:16.064Z,10.11
2022-11-10T14:42:05.494Z,9.93
2022-11-10T14:44:50.801Z,10.04
2022-11-10T14:47:37.649Z,9.64
2022-11-10T14:50:27.730Z,9.46
2022-11-10T14:53:30.291Z,9.55
2022-11-10T14:56:28.927Z,9.21
2022-11-10T14:59:15.127Z,9.10
2022-11-10T15:02:01.470Z,8.95
2022-11-10T15:04:50.846Z,8.92
2022-11-10T15:07:36.460Z,8.77
2022-11-10T15:10:39.150Z,8.68
2022-11-10T15:13:36.433Z,8.60
2022-11-10T15:16:27.513Z,8.42
2022-11-10T15:19:27.923Z,8.57
2022-11-10T15:22:36.248Z,8.45
2022-11-10T15:25:24.304Z,8.53
2022-11-10T15:28:12.283Z,8.30
2022-11-10T15:31:09.781Z,8.20
2022-11-10T15:34:03.705Z,8.11
2022-11-10T15:36:48.656Z,7.99
2022-11-10T15:39:33.765Z,8.04
2022-11-10T15:42:24.196Z,8.05
2022-11-10T15:45:09.850Z,7.94
2022-11-10T15:47:55.745Z,7.75
2022-11-10T15:50:42.796Z,7.89
2022-11-10T15:53:37.503Z,7.81
2022-11-10T15:56:24.808Z,7.78
2022-11-10T15:59:10.995Z,7.82
2022-11-10T16:01:56.483Z,7.79
2022-11-10T16:04:41.779Z,7.80
2022-11-10T16:07:45.069Z,7.51
2022-11-10T16:10:30.996Z,7.58
2022-11-10T16:13:21.000Z,7.46
2022-11-10T16:16:06.380Z,7.27
2022-11-10T16:18:52.201Z,7.31
2022-11-10T16:21:37.947Z,7.13
2022-11-10T16:24:22.853Z,7.22
2022-11-10T16:27:12.631Z,7.10
2022-11-10T16:29:58.016Z,7.25
2022-11-10T16:32:42.979Z,6.97
2022-11-10T16:35:28.247Z,7.04
2022-11-10T16:38:22.289Z,7.00
2022-11-10T16:41:12.511Z,7.03
2022-11-10T16:43:57.719Z,7.01
2022-11-10T16:46:54.280Z,7.04
2022-11-10T16:49:44.770Z,6.80
2022-11-10T16:52:37.274Z,6.83
2022-11-10T16:55:26.330Z,6.67
2022-11-10T16:58:18.859Z,6.67
2022-11-10T17:01:19.412Z,6.60
2022-11-10T17:04:11.293Z,6.73
2022-11-10T17:06:56.652Z,6.60
2022-11-10T17:09:41.944Z,6.50
2022-11-10T17:12:28.222Z,6.62
2022-11-10T17:15:15.236Z,6.44
2022-11-10T17:18:04.767Z,6.61
2022-11-10T17:20:51.965Z,6.68
2022-11-10T17:23:37.573Z,6.69
2022-11-10T17:26:22.790Z,6.45
2022-11-10T17:29:17.882Z,6.62
2022-11-10T17:32:03.233Z,6.60
2022-11-10T17:35:15.350Z,6.55
2022-11-10T17:38:00.793Z,6.52
2022-11-10T17:40:46.802Z,6.50
2022-11-10T17:43:31.792Z,6.47
2022-11-10T17:46:16.911Z,6.43
2022-11-10T17:49:03.168Z,6.38
2022-11-10T17:51:48.654Z,6.35
2022-11-10T17:54:34.147Z,6.34
2022-11-10T17:57:19.512Z,6.29
2022-11-10T18:00:05.349Z,6.22
2022-11-10T18:02:55.219Z,6.21
2022-11-10T18:05:41.674Z,6.16
2022-11-10T18:08:26.810Z,6.09
2022-11-10T18:11:14.432Z,6.02
2022-11-10T18:14:00.776Z,5.96
2022-11-10T18:16:47.270Z,5.83
2022-11-10T18:19:33.623Z,5.71
2022-11-10T18:22:18.865Z,5.70
2022-11-10T18:25:05.404Z,5.61
2022-11-10T18:27:50.591Z,5.60
2022-11-10T18:30:37.713Z,5.54
2022-11-10T18:33:24.190Z,5.60
2022-11-10T18:36:09.770Z,5.44
2022-11-10T18:38:54.986Z,5.50
2022-11-10T18:41:48.843Z,5.59
2022-11-10T18:44:36.903Z,5.51
2022-11-10T18:47:21.966Z,5.40
2022-11-10T18:50:08.227Z,5.40
2022-11-10T18:53:22.872Z,5.36
2022-11-10T18:56:09.364Z,5.30
2022-11-10T18:58:56.998Z,5.28
2022-11-10T19:01:42.596Z,5.23
2022-11-10T19:04:27.879Z,5.09
2022-11-10T19:07:13.138Z,4.91
2022-11-10T19:09:58.330Z,4.87
2022-11-10T19:12:43.627Z,4.82
2022-11-10T19:15:28.482Z,4.78
2022-11-10T19:18:13.992Z,4.69
2022-11-10T19:21:04.281Z,4.71
2022-11-10T19:23:49.362Z,4.63
2022-11-10T19:26:34.750Z,4.66
2022-11-10T19:29:19.860Z,4.64
2022-11-10T19:32:05.428Z,4.50
2022-11-10T19:34:50.430Z,4.40
2022-11-10T19:37:35.258Z,4.36
2022-11-10T19:40:21.288Z,4.25
2022-11-10T19:43:06.633Z,4.24
2022-11-10T19:46:02.522Z,4.31
2022-11-10T19:48:47.704Z,4.22
2022-11-10T19:51:34.169Z,4.18
2022-11-10T19:54:47.649Z,4.02
2022-11-10T19:57:32.705Z,4.11
2022-11-10T20:00:18.317Z,4.12
2022-11-10T20:03:03.393Z,3.94
2022-11-10T20:05:57.670Z,4.03
2022-11-10T20:08:44.439Z,3.95
2022-11-10T20:11:29.899Z,3.93
2022-11-10T20:14:15.189Z,4.02
2022-11-10T20:17:00.503Z,4.03
2022-11-10T20:19:45.512Z,4.04
2022-11-10T20:22:30.940Z,4.03
2022-11-10T20:25:16.214Z,3.84
2022-11-10T20:28:05.802Z,3.83
2022-11-10T20:30:50.707Z,3.88
2022-11-10T20:33:36.367Z,3.85
2022-11-10T20:36:27.147Z,3.85
2022-11-10T20:39:12.413Z,3.86
2022-11-10T20:41:57.723Z,3.83
2022-11-10T20:44:43.074Z,3.73
2022-11-10T20:47:28.657Z,3.64
2022-11-10T20:50:16.362Z,3.64
2022-11-10T20:53:05.716Z,3.51
2022-11-10T20:55:57.764Z,3.50
2022-11-10T20:58:43.125Z,3.57
2022-11-10T21:01:28.374Z,3.62
2022-11-10T21:04:13.799Z,3.59
2022-11-10T21:06:59.078Z,3.43
2022-11-10T21:09:59.421Z,3.57
2022-11-10T21:13:40.639Z,3.62
2022-11-10T21:16:25.606Z,3.55
2022-11-10T21:19:10.649Z,3.56
2022-11-10T21:21:58.015Z,3.47
2022-11-10T21:24:43.319Z,3.47
2022-11-10T21:27:28.277Z,3.45
2022-11-10T21:30:22.510Z,3.39
2022-11-10T21:33:07.482Z,3.38
2022-11-10T21:35:52.309Z,3.28
2022-11-10T21:38:37.818Z,3.20
2022-11-10T21:41:22.821Z,3.08
2022-11-10T21:44:08.072Z,3.12
2022-11-10T21:46:53.161Z,3.04
2022-11-10T21:49:37.953Z,2.86
2022-11-10T21:52:23.140Z,2.77
2022-11-10T21:55:08.811Z,2.80
2022-11-10T21:57:58.088Z,2.81
2022-11-10T22:00:43.391Z,2.85
2022-11-10T22:03:30.008Z,2.74
2022-11-10T22:06:17.958Z,2.80
2022-11-10T22:09:03.539Z,2.81
2022-11-10T22:12:07.148Z,2.78
2022-11-10T22:15:11.554Z,2.65
2022-11-10T22:18:15.346Z,2.65
2022-11-10T22:21:01.240Z,2.57
2022-11-10T22:24:04.958Z,2.42
2022-11-10T22:26:50.689Z,2.43
2022-11-10T22:29:36.215Z,2.40
2022-11-10T22:32:21.452Z,2.41
2022-11-10T22:35:07.308Z,2.26
2022-11-10T22:37:52.243Z,2.15
2022-11-10T22:40:55.745Z,2.18
2022-11-10T22:43:59.674Z,2.18
2022-11-10T22:46:47.934Z,2.26
2022-11-10T22:49:32.729Z,2.39
2022-11-10T22:52:20.869Z,2.37
2022-11-10T22:55:06.234Z,2.36
2022-11-10T22:57:52.706Z,2.45
